Southern Sonoma County Latest

20 Stations

15 Minute Data
as of 5/5/26 4:33 AM PDT
Station Date Time Temp (°F) RH (%) Dew Pt (°F) Wind Spd (mph) Wind Dir (°) Wind Gust (mph) Latest Rain (In) Daily Rain (In) Daily Min Temp (°F) Daily Max Temp (°F)
Upper Rincon Valley 5/5/26 0430 49.5   2.5 98   2 49.0   3.2 0.5   0.4 WSW | 257 2.2   0.3 0.00 0.00 49.3   3.8 49.9   0.7
Lower Bennett Valley 5/5/26 0430 51.3   9.5 100   0 51.3   9.5 0.5   0.1 N | 354 2.4   0.1 0.00 0.01 51.0   9.6 51.6   1.7
Kenwood (Wildwood) 5/5/26 0430 51.8   6.5 96   0 50.8   6.7 0.9   0.4 N | 8 2.0   0.0 0.00 0.01 51.7   6.7 52.0   1.0
Crane Creek (Ranch 62) 5/5/26 0430 52.2   5.7 98   3 51.6   6.5 0.0   0.9 N | 0 0.0   2.1 0.00 0.01 51.8   5.5 52.4   3.5
Rohnert Park-West (Stony Point) 5/5/26 0430 52.7   6.7 97   0 51.7   6.6 0.4   0.4 W | 273 2.3   2.3 0.00 0.00 52.3   8.2 52.8   5.6
Rice-Spivak Vineyard 5/5/26 0430 52.4   5.6 - - - - - - - 51.8   10.5 52.5   2.7
Cartograph Wines Base 5/5/26 0430 52.3   3.1 97   1 51.4   2.8 5.3   4.6 SW | 226 9.9   8.1 0.00 0.01 51.6   3.0 52.3   0.8
Cartograph Wines Remote 5/5/26 0430 52.5   3.7 - - - - - - - 51.8   4.7 52.6   3.2
Penngrove (Asellus) 5/5/26 0430 52.2   7.8 96   1 51.2   8.0 2.4   2.4 NW | 323 4.3   4.3 0.00 0.00 51.6   7.9 52.2   2.9
Sonoma Valley (Bedrock) 5/5/26 0430 50.8   6.2 96   0 49.8   6.3 - - - 0.00 0.02 50.7   6.8 51.3   2.8
Sonoma-West (Arnold) 5/5/26 0430 53.0   8.8 92   2 50.7   8.1 0.4   0.6 NNE | 16 2.3   0.4 0.00 0.00 52.3   8.1 53.1   0.2
Sonoma Valley HS 5/5/26 0430 52.6   6.7 100   1 52.6   6.9 0.9   0.9 SE | 131 1.5   1.4 0.00 0.00 52.0   6.4 52.6   1.1
Sonoma East (Bundschu01) 5/5/26 0430 52.7   9.7 94   0 51.0   9.8 0.3   0.6 SSW | 200 1.5   0.7 0.00 0.02 52.3   9.7 52.8   5.0
Sonoma-SE (Napoli) 5/5/26 0430 52.5   9.0 94   1 50.9   9.2 0.0   0.0 W | 271 1.7   1.7 0.00 0.02 52.2   9.0 52.8   3.3
Schellville (Sasaki) 2/7/26 1900 53.4   2.2 88   10 49.9   1.0 3.3   1.8 SW | 225 5.8   4.0 0.00 0.00 47.0   0.8 62.8   8.4
Petaluma (Ranch 10) 5/5/26 0430 53.1   8.9 95   2 51.8   9.3 3.5   3.5 WNW | 297 6.6   6.6 0.00 0.02 52.4   8.7 53.2   1.1
Carneros (Ranch 71) 5/5/26 0430 51.8   2.8 98   5 51.3   4.2 5.3   5.3 W | 259 7.8   7.0 0.00 0.03 51.4   2.8 51.9   0.6
Ricci Vineyards (Carneros) 5/5/26 0430 52.9   9.0 94   1 51.2   9.2 4.4   2.8 W | 275 7.5   5.2 0.00 0.04 52.1   8.3 53.0   0.5
Carneros Upper (Ranch 81) 5/5/26 0430 51.8   2.7 1   90 -54.1   100.6 5.6   5.4 WSW | 248 8.7   5.2 - - 51.4   2.6 52.0   0.2
Carneros Lower (Ranch 81) 5/5/26 0415 52.3   5.4 0   92 -64.2   109.2 0.2   0.1 S | 177 2.6   1.2 0.00 0.00 52.0   5.1 52.6   0.9
Max     53.1 100 52.6 5.6 - 9.9 0.00 0.04 52.4 53.2
Avg     52.1 85 38.1 1.9 - 4.0 0.00 - - -
Min     49.5 0 -64.2 0.0 - 0.0 0.00 0.00 49.3 49.9